Monday, December 18, 2017, 5:44 AM EST
Back to Local

KGON, Groton/new London Airport

Location: Groton, CT, United States Lat: 41.333
Local Time: 5:44 AM EST (10:44 GMT) Lon: -72.05
Time Zone: US/Eastern Elev: 9 ft

Show me the last for .
Show Decoded

2017-12-18 04:56 METAR KGON 180956Z AUTO 03005KT 10SM OVC026 M01/M11 A3018 RMK AO2 SLP220
                 T10111106 =
2017-12-18 03:56 METAR KGON 180856Z AUTO 03003KT 10SM OVC025 M02/M11 A3019 RMK AO2 SLP224
                 T10171111 58011 =
2017-12-18 02:56 METAR KGON 180756Z AUTO 04004KT 10SM OVC024 M02/M12 A3021 RMK AO2 SLP229
                 T10171117 =
2017-12-18 01:56 METAR KGON 180656Z AUTO 00000KT 10SM OVC028 M02/M12 A3022 RMK AO2 SLP234
                 T10171122 =
2017-12-18 01:51 METAR KGON 180651Z AUTO 03003KT 10SM OVC028 M02/M12 A3023 RMK AO2 =
2017-12-18 00:56 METAR KGON 180556Z AUTO 04005KT 10SM CLR M02/M12 A3021 RMK AO2 SLP230 T10171122
                 11011 21017 58017 =
2017-12-17 23:56 METAR KGON 180456Z AUTO 03006KT 10SM FEW038 BKN047 OVC070 M02/M11 A3024 RMK AO2
                 SLP238 T10171106 400061061 =
2017-12-17 22:56 METAR KGON 180356Z AUTO 04003KT 10SM FEW080 OVC100 M01/M10 A3025 RMK AO2 SLP244
                 T10111100 =
2017-12-17 21:56 METAR KGON 180256Z 00000KT 10SM BKN090 OVC110 M01/M12 A3026 RMK AO2 SLP247
                 T10111122 58006 =
2017-12-17 20:56 METAR KGON 180156Z 36004KT 10SM SCT120 M01/M12 A3028 RMK AO2 SLP252 T10111117 =
2017-12-17 19:56 METAR KGON 180056Z 32003KT 10SM BKN120 M01/M10 A3029 RMK AO2 SLP255 T10111100 =
2017-12-17 18:56 METAR KGON 172356Z 00000KT 10SM CLR M02/M11 A3028 RMK AO2 SLP253 T10171106 10000
                 21022 53010 =
2017-12-17 17:56 METAR KGON 172256Z 36003KT 10SM CLR M02/M11 A3027 RMK AO2 SLP249 T10221111 =
2017-12-17 16:56 METAR KGON 172156Z 36006KT 10SM CLR M01/M12 A3026 RMK AO2 SLP245 T10111117 =
2017-12-17 15:56 METAR KGON 172056Z 34004KT 10SM CLR M01/M12 A3025 RMK AO2 SLP243 T10111122 55003
                 =
2017-12-17 14:56 METAR KGON 171956Z 34006KT 10SM CLR M01/M13 A3024 RMK AO2 SLP240 T10061128 =
2017-12-17 13:56 METAR KGON 171856Z 34009KT 10SM CLR 00/M14 A3023 RMK AO2 SLP238 T00001139 =
2017-12-17 12:56 METAR KGON 171756Z 33006KT 10SM CLR 00/M13 A3026 RMK AO2 SLP246 T00001128 10006
                 21056 55012 =
2017-12-17 11:56 METAR KGON 171656Z 33009KT 10SM CLR M01/M12 A3025 RMK AO2 SLP244 T10061122 =
2017-12-17 10:56 METAR KGON 171556Z 34009KT 10SM FEW090 M01/M12 A3028 RMK AO2 SLP253 T10061122 =
2017-12-17 09:56 METAR KGON 171456Z 33007KT 10SM CLR M01/M12 A3030 RMK AO2 SLP259 T10111117 53006
                 =
2017-12-17 08:56 METAR KGON 171356Z 35008KT 10SM CLR M03/M12 A3028 RMK AO2 SLP252 T10281122 =
2017-12-17 07:56 METAR KGON 171256Z 35006KT 10SM CLR M04/M12 A3028 RMK AO2 SLP253 T10441117 =
2017-12-17 06:56 METAR KGON 171156Z 33006KT 10SM CLR M06/M12 A3028 RMK AO2 SLP252 T10561122 11033
                 21061 51010 =
2017-12-17 05:56 METAR KGON 171056Z AUTO 32007KT 10SM CLR M06/M12 A3027 RMK AO2 SLP250 T10561122
                 =

Support USWX by starting your Amazon purchase here.